Time;durP1;ratioP1;P1;durP2;ratioP2;P2;SDS_P1;SDS_P2;PMS_P1;PMS_P2;Temp;Humidity;BMP_temperature;BMP_pressure;BME280_temperature;BME280_humidity;BME280_pressure;Samples;Min_cycle;Max_cycle;Signal;HPM_P1;HPM_P2
2022/06/02 00:01:16;;;;;;;14.05;12.50;;;;;;;8.56;100.00;67725.50;4987351;28;20546;-75
2022/06/02 00:03:49;;;;;;;15.65;13.07;;;;;;;8.57;100.00;67726.06;4985569;28;20045;-76
2022/06/02 00:06:36;;;;;;;15.63;13.27;;;;;;;;;;4987725;28;20112;-76
2022/06/02 00:09:06;;;;;;;19.35;17.23;;;;;;;8.54;100.00;67722.66;4999577;28;20144;-76
2022/06/02 00:12:13;;;;;;;20.92;16.67;;;;;;;8.63;100.00;67735.53;5001302;28;20300;-77
2022/06/02 00:14:52;;;;;;;19.42;16.23;;;;;;;8.64;100.00;67733.44;4980944;28;20465;-76
2022/06/02 00:17:42;;;;;;;21.52;17.23;;;;;;;8.72;100.00;67743.06;4995923;28;20046;-75
2022/06/02 00:20:08;;;;;;;20.65;17.27;;;;;;;;;;5009901;28;20045;-76
2022/06/02 00:23:04;;;;;;;18.55;15.60;;;;;;;8.86;100.00;67763.09;5008305;28;20053;-77
2022/06/02 00:25:51;;;;;;;19.73;16.02;;;;;;;8.86;100.00;67757.78;5010152;28;20629;-76
2022/06/02 00:28:45;;;;;;;20.00;16.13;;;;;;;8.84;100.00;67758.19;4973372;28;20578;-76
2022/06/02 00:31:10;;;;;;;20.75;16.95;;;;;;;8.87;100.00;67754.19;4986164;28;20141;-77
2022/06/02 00:33:36;;;;;;;19.13;15.57;;;;;;;;;;4999169;28;20181;-76
2022/06/02 00:36:17;;;;;;;17.83;14.70;;;;;;;8.77;100.00;67748.72;5010528;28;20049;-75
2022/06/02 00:38:43;;;;;;;17.92;14.85;;;;;;;8.63;100.00;67735.53;4988147;28;20274;-77
2022/06/02 00:41:44;;;;;;;17.88;15.38;;;;;;;8.58;100.00;67727.22;4989508;28;20060;-76
2022/06/02 00:44:30;;;;;;;20.45;15.98;;;;;;;8.47;100.00;67717.41;5001812;28;20038;-76
2022/06/02 00:47:02;;;;;;;20.55;16.30;;;;;;;8.39;100.00;67706.25;4987725;28;20111;-76
2022/06/02 00:50:00;;;;;;;21.20;17.15;;;;;;;8.30;100.00;67696.03;4998113;28;20046;-76
2022/06/02 00:52:31;;;;;;;22.73;17.50;;;;;;;8.36;100.00;67703.38;4989631;28;20038;-76
2022/06/02 00:58:28;;;;;;;22.73;17.52;;;;;;;8.34;100.00;67701.13;4988236;28;20057;-75
2022/06/02 01:01:03;;;;;;;20.17;16.90;;;;;;;8.35;100.00;67702.25;5003277;28;20065;-77
2022/06/02 01:03:44;;;;;;;20.23;16.83;;;;;;;8.25;100.00;67690.94;5007091;28;20519;-76
2022/06/02 01:06:19;;;;;;;19.98;16.85;;;;;;;8.28;100.00;67693.75;5009513;28;20049;-77
2022/06/02 01:08:53;;;;;;;21.05;16.90;;;;;;;8.24;100.00;67689.25;4996529;28;20046;-76
2022/06/02 01:11:32;;;;;;;20.52;17.38;;;;;;;8.26;100.00;67691.50;5009038;28;20633;-76
2022/06/02 01:14:34;;;;;;;20.38;16.02;;;;;;;8.14;100.00;67679.03;4989696;28;20042;-76
2022/06/02 01:17:06;;;;;;;17.73;14.55;;;;;;;8.03;100.00;67671.31;4991400;28;20448;-77
2022/06/02 01:19:40;;;;;;;21.70;18.17;;;;;;;8.14;100.00;67670.50;5007230;28;20397;-76
2022/06/02 01:22:05;;;;;;;20.38;15.88;;;;;;;;;;4995991;28;20045;-76
2022/06/02 01:24:37;;;;;;;25.05;18.55;;;;;;;8.03;100.00;67668.69;5006043;28;20045;-77
2022/06/02 01:27:11;;;;;;;21.13;16.48;;;;;;;7.98;100.00;67660.34;5007111;28;20056;-76
2022/06/02 01:29:54;;;;;;;20.73;17.05;;;;;;;7.89;100.00;67653.38;5001392;28;20050;-78
2022/06/02 01:32:36;;;;;;;19.67;16.10;;;;;;;7.81;100.00;67642.25;5007546;28;20566;-77
2022/06/02 01:35:28;;;;;;;20.17;16.65;;;;;;;7.77;100.00;67637.13;5005147;28;20046;-76
2022/06/02 01:38:02;;;;;;;20.30;16.70;;;;;;;7.75;100.00;67635.44;4990084;28;20050;-76
2022/06/02 01:40:41;;;;;;;21.48;17.30;;;;;;;7.74;100.00;67634.31;4986447;28;20081;-76
2022/06/02 01:43:35;;;;;;;18.83;14.68;;;;;;;7.63;100.00;67621.88;4971038;28;20034;-77
2022/06/02 01:46:06;;;;;;;20.83;16.83;;;;;;;7.67;100.00;67631.69;4998025;28;20452;-76
2022/06/02 01:48:56;;;;;;;23.33;17.70;;;;;;;7.67;100.00;67629.03;5005791;28;20088;-76
2022/06/02 01:51:27;;;;;;;19.77;15.90;;;;;;;7.50;100.00;67607.16;5002104;28;20100;-77
2022/06/02 01:54:20;;;;;;;20.75;17.17;;;;;;;7.46;100.00;67606.41;5006602;28;20058;-75
2022/06/02 01:57:14;;;;;;;23.20;17.85;;;;;;;7.47;100.00;67606.97;5007894;28;20037;-76
2022/06/02 02:00:04;;;;;;;22.30;17.88;;;;;;;7.44;100.00;67606.22;5005056;28;20532;-77
2022/06/02 02:02:40;;;;;;;21.70;17.67;;;;;;;7.38;100.00;67594.13;5007783;28;20129;-75
2022/06/02 02:05:14;;;;;;;23.42;17.83;;;;;;;7.39;100.00;67595.84;5005948;28;20070;-75
2022/06/02 02:08:10;;;;;;;23.33;18.02;;;;;;;7.40;100.00;67596.97;5007964;28;20060;-77
2022/06/02 02:10:38;;;;;;;23.20;18.10;;;;;;;7.34;100.00;67589.63;5005456;28;20046;-77
2022/06/02 02:13:38;;;;;;;23.92;18.40;;;;;;;7.33;100.00;67591.69;5007561;28;20567;-76
2022/06/02 02:16:25;;;;;;;20.55;17.48;;;;;;;7.22;100.00;67582.47;4986744;28;20057;-76
2022/06/02 02:19:38;;;;;;;22.92;17.88;;;;;;;7.15;100.00;67568.66;4968000;28;20050;-76
2022/06/02 02:22:11;;;;;;;23.65;17.08;;;;;;;;;;4959448;28;20053;-77
2022/06/02 02:24:40;;;;;;;22.73;17.63;;;;;;;7.15;100.00;67571.88;4985426;28;20116;-76
2022/06/02 02:27:23;;;;;;;21.33;17.08;;;;;;;7.12;100.00;67565.84;4984772;28;20046;-77
2022/06/02 02:30:07;;;;;;;22.10;18.02;;;;;;;7.09;100.00;67557.16;4986505;28;20192;-76
2022/06/02 02:32:55;;;;;;;22.35;17.83;;;;;;;7.04;100.00;67556.78;4986416;28;20481;-75
2022/06/02 02:35:34;;;;;;;21.77;17.03;;;;;;;7.04;100.00;67556.22;4980761;28;20038;-75
2022/06/02 02:38:14;;;;;;;20.27;15.88;;;;;;;6.99;100.00;67557.00;5011080;22;20277;-84
2022/06/02 02:40:46;;;;;;;23.10;17.17;;;;;;;6.97;100.00;67552.06;5002962;28;20064;-84
2022/06/02 02:43:40;;;;;;;21.95;16.90;;;;;;;6.94;100.00;67545.47;5024004;28;20037;-85
2022/06/02 02:46:10;;;;;;;21.45;17.60;;;;;;;6.95;100.00;67547.16;4992279;28;20065;-85
2022/06/02 02:48:41;;;;;;;20.33;16.52;;;;;;;6.91;100.00;67542.66;5023244;28;20060;-85
2022/06/02 02:51:17;;;;;;;20.08;15.85;;;;;;;6.86;100.00;67539.63;5023225;28;20095;-85
2022/06/02 02:54:01;;;;;;;20.38;16.55;;;;;;;6.83;100.00;67533.03;5008445;28;20727;-85
2022/06/02 02:57:04;;;;;;;22.02;17.33;;;;;;;6.71;100.00;67520.03;5025516;28;20045;-85
2022/06/02 02:59:40;;;;;;;22.38;17.50;;;;;;;6.70;100.00;67518.88;5025445;28;20100;-85
2022/06/02 03:02:19;;;;;;;23.13;16.80;;;;;;;6.72;100.00;67521.16;5000611;28;20571;-85
2022/06/02 03:04:50;;;;;;;21.17;16.42;;;;;;;6.69;100.00;67520.97;5004437;28;20144;-85
2022/06/02 03:07:17;;;;;;;20.63;16.52;;;;;;;6.69;100.00;67517.75;5022437;28;20589;-85
2022/06/02 03:09:52;;;;;;;20.88;16.40;;;;;;;6.67;100.00;67520.78;5027385;28;20052;-85
2022/06/02 03:12:45;;;;;;;21.48;17.05;;;;;;;6.63;100.00;67516.25;5015193;28;20041;-83
2022/06/02 03:15:22;;;;;;;21.00;16.80;;;;;;;6.61;100.00;67511.34;5001203;28;20374;-85
2022/06/02 03:17:59;;;;;;;22.38;17.38;;;;;;;6.58;100.00;67505.88;5022747;28;20648;-85
2022/06/02 03:20:37;;;;;;;22.52;16.48;;;;;;;6.54;100.00;67501.34;5019588;28;20046;-85
2022/06/02 03:23:14;;;;;;;20.23;15.55;;;;;;;6.57;100.00;67507.41;5021430;28;20048;-86
2022/06/02 03:25:50;;;;;;;20.08;16.48;;;;;;;6.54;100.00;67501.34;5010097;28;20623;-84
2022/06/02 03:28:23;;;;;;;20.92;16.88;;;;;;;6.53;100.00;67505.50;5032189;28;20425;-84
2022/06/02 03:31:17;;;;;;;25.10;18.40;;;;;;;;;;5007579;28;20041;-84
2022/06/02 03:33:53;;;;;;;23.77;17.77;;;;;;;6.48;100.00;67495.13;5009304;28;20096;-83
2022/06/02 03:36:56;;;;;;;22.95;18.60;;;;;;;6.45;100.00;67496.47;5021853;28;20582;-84
2022/06/02 03:40:01;;;;;;;21.48;17.50;;;;;;;6.43;100.00;67488.91;4993054;28;20762;-84
2022/06/02 03:42:32;;;;;;;22.65;17.38;;;;;;;6.43;100.00;67492.13;4971312;28;20065;-85
2022/06/02 03:45:19;;;;;;;21.52;17.55;;;;;;;6.41;100.00;67486.66;5007847;28;20046;-85
2022/06/02 03:47:53;;;;;;;19.25;15.60;;;;;;;6.33;100.00;67483.47;5013937;28;20129;-85
2022/06/02 03:50:37;;;;;;;22.20;17.73;;;;;;;;;;5022129;28;20541;-83
2022/06/02 03:53:24;;;;;;;21.63;17.30;;;;;;;6.44;100.00;67490.59;5001265;28;20042;-84
2022/06/02 03:56:02;;;;;;;23.23;17.30;;;;;;;6.43;100.00;67494.75;5005712;28;20076;-83
2022/06/02 03:58:49;;;;;;;20.08;16.40;;;;;;;6.36;100.00;67483.63;5016181;28;20037;-84
2022/06/02 04:01:21;;;;;;;23.92;18.88;;;;;;;6.40;100.00;67491.38;5030327;28;20060;-85
2022/06/02 04:04:05;;;;;;;22.38;17.35;;;;;;;6.42;100.00;67487.78;5030070;28;20120;-85
2022/06/02 04:06:49;;;;;;;23.75;17.33;;;;;;;6.42;100.00;67493.66;5010992;28;20443;-84
2022/06/02 04:09:31;;;;;;;23.17;18.63;;;;;;;6.49;100.00;67495.69;5017502;28;20038;-84
2022/06/02 04:15:35;;;;;;;24.52;18.50;;;;;;;6.50;100.00;67502.69;5011587;28;20107;-85
2022/06/02 04:18:19;;;;;;;22.17;17.63;;;;;;;6.43;100.00;67492.13;4981663;28;20107;-84
2022/06/02 04:20:54;;;;;;;23.77;18.33;;;;;;;6.57;100.00;67504.75;5022995;28;20060;-85
2022/06/02 04:23:22;;;;;;;24.08;18.50;;;;;;;6.60;100.00;67507.59;5012871;28;20050;-85
2022/06/02 04:26:19;;;;;;;25.85;18.08;;;;;;;6.69;100.00;67518.31;5026057;28;20056;-84
2022/06/02 04:29:03;;;;;;;21.08;16.85;;;;;;;6.75;100.00;67527.75;5028462;28;20037;-85
2022/06/02 04:31:36;;;;;;;24.50;18.80;;;;;;;6.84;100.00;67534.72;5027039;28;20065;-84
2022/06/02 04:34:19;;;;;;;22.77;17.80;;;;;;;6.91;100.00;67542.66;5021051;28;20044;-83
2022/06/02 04:37:12;;;;;;;21.33;17.13;;;;;;;6.87;100.00;67540.75;5030474;22;20145;-83
2022/06/02 04:39:49;;;;;;;23.63;17.90;;;;;;;7.05;100.00;67560.00;4977236;28;20049;-83
2022/06/02 04:42:39;;;;;;;24.25;19.50;;;;;;;7.20;100.00;67574.34;4965847;28;20352;-83
2022/06/02 04:45:42;;;;;;;22.45;17.13;;;;;;;7.27;100.00;67587.53;4979612;28;20778;-83
2022/06/02 04:48:38;;;;;;;22.77;18.25;;;;;;;7.36;100.00;67592.41;4975035;28;20034;-84
2022/06/02 04:51:29;;;;;;;25.13;19.63;;;;;;;7.53;100.00;67613.75;4966119;28;20071;-83
2022/06/02 04:54:13;;;;;;;26.30;19.58;;;;;;;7.67;100.00;67631.69;4973593;28;20047;-84
2022/06/02 04:56:42;;;;;;;26.00;20.45;;;;;;;;;;4988565;28;20070;-83
2022/06/02 04:59:11;;;;;;;26.35;19.92;;;;;;;8.03;100.00;67666.59;4989578;28;20125;-83
2022/06/02 05:01:39;;;;;;;31.02;23.25;;;;;;;8.16;100.00;67680.16;4975024;28;20125;-83
2022/06/02 05:04:09;;;;;;;30.63;23.30;;;;;;;8.31;100.00;67697.72;4990622;28;20046;-83
2022/06/02 05:06:52;;;;;;;30.98;24.20;;;;;;;8.48;100.00;67718.53;4985859;28;20077;-83
2022/06/02 05:09:36;;;;;;;30.90;23.80;;;;;;;8.58;100.00;67721.91;4990895;28;20121;-84
2022/06/02 05:12:17;;;;;;;31.15;23.83;;;;;;;8.66;100.00;67741.00;4964006;28;20527;-83
2022/06/02 05:14:47;;;;;;;31.38;24.60;;;;;;;8.87;100.00;67759.50;4987707;28;20104;-83
2022/06/02 05:17:30;;;;;;;30.90;24.02;;;;;;;8.99;100.00;67773.09;4964442;28;20532;-84
2022/06/02 05:20:04;;;;;;;29.60;24.38;;;;;;;;;;4987212;28;20046;-84
2022/06/02 05:22:32;;;;;;;30.05;25.75;;;;;;;9.25;100.00;67801.44;4985330;28;20038;-84
2022/06/02 05:25:21;;;;;;;29.63;26.10;;;;;;;9.31;100.00;67808.22;4988177;28;20042;-84
2022/06/02 05:27:47;;;;;;;29.77;24.85;;;;;;;;;;4986606;28;20042;-83
2022/06/02 05:30:13;;;;;;;30.90;25.40;;;;;;;9.44;100.00;67822.41;4988921;28;20040;-84
2022/06/02 05:32:38;;;;;;;30.65;27.33;;;;;;;;;;4987554;28;20293;-84
2022/06/02 05:35:26;;;;;;;30.67;26.03;;;;;;;9.61;100.00;67841.09;4971523;28;20428;-84
2022/06/02 05:38:11;;;;;;;29.17;25.73;;;;;;;;;;4987694;28;20842;-84
2022/06/02 05:40:51;;;;;;;30.40;25.98;;;;;;;;;;4987166;28;20532;-85
2022/06/02 05:43:27;;;;;;;31.23;24.23;;;;;;;9.65;100.00;67851.53;4971096;28;20042;-85
2022/06/02 05:46:17;;;;;;;30.30;26.92;;;;;;;9.77;100.00;67859.25;4951598;28;20050;-84
2022/06/02 05:49:07;;;;;;;31.75;25.52;;;;;;;9.84;100.00;67869.84;4986764;28;20438;-85
2022/06/02 05:52:05;;;;;;;32.08;26.35;;;;;;;9.89;100.00;67872.28;4987711;28;20046;-85
2022/06/02 05:54:38;;;;;;;30.23;22.98;;;;;;;9.92;100.00;67878.34;4970712;28;20046;-84
2022/06/02 05:57:04;;;;;;;27.38;22.98;;;;;;;10.05;100.00;67889.88;4986907;28;20053;-85
2022/06/02 05:59:41;;;;;;;27.27;22.58;;;;;;;10.13;100.00;67902.19;4987511;28;20454;-85
2022/06/02 06:02:25;;;;;;;27.08;20.77;;;;;;;10.24;100.00;67913.53;4970529;28;20042;-85
2022/06/02 06:05:02;;;;;;;26.77;21.52;;;;;;;10.31;100.00;67918.84;4984213;28;20153;-85
2022/06/02 06:07:43;;;;;;;21.00;18.38;;;;;;;10.41;100.00;67930.16;4992922;28;20097;-85
2022/06/02 06:10:17;;;;;;;20.98;17.90;;;;;;;10.56;100.00;67947.19;4988336;28;20637;-85
2022/06/02 06:13:11;;;;;;;22.35;18.55;;;;;;;10.66;100.00;67952.09;4987931;28;20038;-83
2022/06/02 06:15:48;;;;;;;22.73;17.55;;;;;;;10.83;100.00;67971.94;4980690;28;20042;-83
2022/06/02 06:18:26;;;;;;;22.80;18.55;;;;;;;10.91;100.00;67985.78;4989092;28;20061;-83
2022/06/02 06:21:02;;;;;;;25.27;18.83;;;;;;;10.91;100.00;67985.22;4990802;28;20057;-84
2022/06/02 06:24:05;;;;;;;22.40;18.48;;;;;;;11.02;100.00;68000.94;4986921;28;20069;-84
2022/06/02 06:26:30;;;;;;;22.40;19.50;;;;;;;;;;4988205;28;20525;-84
2022/06/02 06:29:01;;;;;;;22.53;20.13;;;;;;;11.24;100.00;68022.13;4983896;28;20061;-83
2022/06/02 06:31:38;;;;;;;21.23;18.45;;;;;;;11.31;100.00;68030.06;4960466;28;21266;-84
2022/06/02 06:34:16;;;;;;;20.05;17.20;;;;;;;11.32;98.08;68031.19;4963178;28;20501;-84
2022/06/02 06:37:12;;;;;;;21.45;18.83;;;;;;;11.43;100.00;68043.69;4986419;28;20133;-84
2022/06/02 06:39:52;;;;;;;25.38;18.30;;;;;;;11.69;100.00;68075.31;4969719;28;20493;-84
2022/06/02 06:42:17;;;;;;;20.88;18.05;;;;;;;;;;4978493;28;20069;-84
2022/06/02 06:44:52;;;;;;;21.17;18.53;;;;;;;;;;4969831;28;20501;-84
2022/06/02 06:47:22;;;;;;;21.92;17.90;;;;;;;;;;4987624;28;20285;-83
2022/06/02 06:49:56;;;;;;;19.30;16.17;;;;;;;11.95;97.19;68104.31;4969759;28;20057;-84
2022/06/02 06:52:24;;;;;;;17.00;14.07;;;;;;;;;;4969381;28;20125;-83
2022/06/02 06:54:52;;;;;;;14.27;12.88;;;;;;;12.21;95.23;68130.06;5000442;28;20264;-84
2022/06/02 06:57:43;;;;;;;15.23;12.13;;;;;;;12.16;92.89;68116.34;5002793;28;20521;-84
2022/06/02 07:00:19;;;;;;;14.82;13.32;;;;;;;;;;4960879;28;20057;-83
2022/06/02 07:03:10;;;;;;;16.08;13.48;;;;;;;12.07;92.39;68114.13;4973435;28;20092;-84
2022/06/02 07:05:42;;;;;;;14.93;12.65;;;;;;;12.00;92.69;68100.84;4977745;28;20125;-84
2022/06/02 07:08:08;;;;;;;16.10;12.93;;;;;;;12.02;92.12;68108.44;4987099;28;20046;-84
2022/06/02 07:10:38;;;;;;;14.82;12.30;;;;;;;12.04;93.03;68105.41;4968958;28;20056;-84
2022/06/02 07:13:13;;;;;;;16.17;12.82;;;;;;;12.02;93.06;68103.69;4977845;28;20521;-83
2022/06/02 07:15:53;;;;;;;13.93;12.40;;;;;;;;;;4968213;28;20038;-83
2022/06/02 07:18:37;;;;;;;13.80;11.93;;;;;;;12.02;91.42;68108.44;4971041;28;20046;-84
2022/06/02 07:21:17;;;;;;;14.38;12.38;;;;;;;12.10;91.58;68112.22;4936715;28;20046;-84
2022/06/02 07:24:07;;;;;;;13.82;12.38;;;;;;;12.22;91.05;68125.84;4969392;28;20043;-84
2022/06/02 07:27:09;;;;;;;13.80;12.32;;;;;;;12.46;90.85;68159.97;4981638;28;20046;-83
2022/06/02 07:30:03;;;;;;;8.90;7.72;;;;;;;12.73;87.10;68188.00;4985662;28;20046;-84
2022/06/02 07:33:06;;;;;;;13.80;10.77;;;;;;;12.95;87.78;68207.13;4984222;28;20409;-84
2022/06/02 07:35:31;;;;;;;11.60;10.40;;;;;;;;;;4987935;28;20123;-84
2022/06/02 07:38:11;;;;;;;12.67;10.30;;;;;;;13.24;85.31;68238.97;4985736;28;20489;-84
2022/06/02 07:40:48;;;;;;;9.18;7.60;;;;;;;13.27;83.46;68248.31;4986065;28;20344;-84
2022/06/02 07:43:23;;;;;;;10.55;9.48;;;;;;;;;;4985718;28;20133;-84
2022/06/02 07:45:58;;;;;;;10.65;9.10;;;;;;;;;;4986378;28;20042;-83
2022/06/02 07:48:29;;;;;;;10.60;9.32;;;;;;;13.48;83.74;68271.63;4988186;28;20053;-84
2022/06/02 07:51:02;;;;;;;12.52;9.75;;;;;;;;;;4982485;28;20039;-83
2022/06/02 07:53:52;;;;;;;11.43;9.30;;;;;;;13.30;83.44;68246.38;4991879;28;20126;-85
2022/06/02 07:56:42;;;;;;;11.32;10.13;;;;;;;13.23;84.33;68235.69;4964286;28;20130;-87
2022/06/02 07:59:16;;;;;;;13.73;9.05;;;;;;;;;;4972430;28;20050;-88
2022/06/02 08:02:00;;;;;;;11.65;9.48;;;;;;;13.18;84.54;68232.69;4988526;28;20050;-87
2022/06/02 08:05:03;;;;;;;10.27;8.68;;;;;;;13.26;82.59;68241.25;4972422;28;20644;-85
2022/06/02 08:07:33;;;;;;;8.88;7.95;;;;;;;;;;4967611;28;20102;-86
2022/06/02 08:10:19;;;;;;;8.73;7.68;;;;;;;13.58;80.51;68276.50;4987683;28;20069;-85
2022/06/02 08:13:08;;;;;;;11.30;8.73;;;;;;;13.82;81.42;68308.59;4989011;28;20053;-86
2022/06/02 08:15:41;;;;;;;8.02;7.00;;;;;;;;;;4987713;28;20043;-88
2022/06/02 08:18:25;;;;;;;9.73;7.70;;;;;;;;;;4989647;28;20038;-86
2022/06/02 08:21:26;;;;;;;8.75;7.38;;;;;;;14.13;78.75;68337.94;4987024;28;20063;-85
2022/06/02 08:23:57;;;;;;;9.10;8.05;;;;;;;14.06;76.49;68329.97;4987115;28;20034;-85
2022/06/02 08:26:41;;;;;;;10.90;7.07;;;;;;;14.32;79.37;68367.03;4971527;28;20069;-85
2022/06/02 08:29:29;;;;;;;11.65;8.13;;;;;;;14.41;77.39;68369.22;4970080;28;20077;-86
2022/06/02 08:32:25;;;;;;;11.55;8.20;;;;;;;14.44;76.73;68372.66;4989141;28;20043;-86
2022/06/02 08:35:04;;;;;;;10.10;7.57;;;;;;;;;;4970512;28;20034;-86
2022/06/02 08:37:29;;;;;;;;;;;;;;;;;;4989853;28;20042;-86
2022/06/02 08:40:06;;;;;;;9.60;7.35;;;;;;;14.03;78.61;68327.13;4988215;28;20304;-86
2022/06/02 08:42:34;;;;;;;9.15;7.93;;;;;;;;;;4989149;28;20058;-86
2022/06/02 08:45:22;;;;;;;11.27;8.20;;;;;;;;;;4992349;28;20038;-86
2022/06/02 08:48:42;;;;;;;11.88;7.78;;;;;;;14.37;75.33;68364.69;4991312;28;20057;-86
2022/06/02 08:51:27;;;;;;;10.95;7.82;;;;;;;14.52;77.47;68381.22;4949006;28;20051;-86
2022/06/02 08:54:24;;;;;;;8.95;6.93;;;;;;;;;;4981974;28;20046;-86
2022/06/02 08:57:01;;;;;;;7.28;6.15;;;;;;;14.84;72.78;68423.00;4957362;28;20125;-86
2022/06/02 08:59:29;;;;;;;6.50;5.30;;;;;;;15.05;70.42;68441.00;4988779;28;20046;-86
2022/06/02 09:02:07;;;;;;;8.67;6.77;;;;;;;;;;4972831;28;20506;-86
2022/06/02 09:04:51;;;;;;;7.78;7.00;;;;;;;;;;4988168;28;20042;-86
2022/06/02 09:07:23;;;;;;;9.90;7.45;;;;;;;14.99;71.60;68430.91;4984825;28;20043;-86
2022/06/02 09:10:08;;;;;;;6.75;5.00;;;;;;;15.06;68.37;68439.44;4987130;28;20490;-86
2022/06/02 09:13:04;;;;;;;7.57;6.28;;;;;;;15.13;69.12;68454.88;4974082;28;20042;-87
2022/06/02 09:16:07;;;;;;;10.05;6.80;;;;;;;15.16;69.14;68452.94;4989354;28;20038;-86
2022/06/02 09:18:43;;;;;;;7.45;6.45;;;;;;;15.00;68.49;68435.31;4987492;28;20616;-86
2022/06/02 09:21:22;;;;;;;9.45;6.43;;;;;;;15.20;70.46;68462.31;4966488;28;20036;-86
2022/06/02 09:24:15;;;;;;;8.95;7.53;;;;;;;;;;4986898;28;20034;-86
2022/06/02 09:26:53;;;;;;;8.50;6.65;;;;;;;15.39;69.60;68478.56;4987933;28;20073;-86
2022/06/02 09:29:40;;;;;;;8.10;7.30;;;;;;;15.66;67.79;68508.22;4988787;28;20061;-85
2022/06/02 09:32:40;;;;;;;6.50;5.65;;;;;;;15.53;66.98;68499.31;4956493;28;20050;-86
2022/06/02 09:35:21;;;;;;;6.32;4.30;;;;;;;15.46;63.09;68486.00;4961128;28;20590;-86
2022/06/02 09:38:24;;;;;;;6.80;4.97;;;;;;;15.30;64.68;68473.69;4987581;28;20057;-86
2022/06/02 09:41:15;;;;;;;6.65;5.50;;;;;;;15.16;63.83;68450.25;4986822;28;20050;-86
2022/06/02 09:43:59;;;;;;;5.65;4.47;;;;;;;15.29;65.62;68467.19;4992660;28;20069;-86
2022/06/02 09:47:02;;;;;;;8.38;5.03;;;;;;;15.54;64.40;68495.66;4991866;28;20077;-86
2022/06/02 09:50:10;;;;;;;7.40;5.07;;;;;;;15.72;61.90;68515.06;4954808;28;20387;-85
2022/06/02 09:53:02;;;;;;;8.10;5.95;;;;;;;15.71;61.79;68514.50;4928959;28;20605;-86
2022/06/02 09:55:39;;;;;;;6.88;4.93;;;;;;;15.98;64.35;68538.75;4984904;28;20038;-86
2022/06/02 09:58:11;;;;;;;6.00;5.03;;;;;;;;;;4948932;28;20046;-86
2022/06/02 10:00:39;;;;;;;6.10;4.65;;;;;;;;;;4971057;28;20050;-86
2022/06/02 10:03:51;;;;;;;6.45;5.22;;;;;;;16.44;61.06;68600.78;4988107;28;20517;-86
2022/06/02 10:06:22;;;;;;;7.25;5.80;;;;;;;16.36;60.94;68584.16;4955364;28;20042;-86
2022/06/02 10:09:19;;;;;;;6.75;6.05;;;;;;;16.43;61.83;68592.16;4988777;28;20038;-86
2022/06/02 10:12:54;;;;;;;7.85;6.22;;;;;;;16.16;61.64;68564.06;4986136;28;20084;-86
2022/06/02 10:15:27;;;;;;;6.43;5.78;;;;;;;16.09;64.38;68556.09;4988596;28;20046;-86
2022/06/02 10:17:56;;;;;;;7.75;5.63;;;;;;;15.95;62.08;68541.25;4941603;28;20051;-86
2022/06/02 10:20:34;;;;;;;8.35;5.90;;;;;;;;;;4976175;28;20050;-86
2022/06/02 10:23:05;;;;;;;6.78;6.07;;;;;;;;;;4945040;28;20042;-86
2022/06/02 10:25:47;;;;;;;8.55;6.30;;;;;;;15.87;62.33;68531.59;4989239;28;20387;-86
2022/06/02 10:28:24;;;;;;;7.70;5.47;;;;;;;16.21;64.46;68570.31;4988236;28;20581;-86
2022/06/02 10:31:14;;;;;;;8.23;5.75;;;;;;;16.23;61.64;68569.94;4987711;28;20105;-86
2022/06/02 10:33:47;;;;;;;7.38;5.28;;;;;;;16.42;61.98;68593.69;4987397;28;20046;-86
2022/06/02 10:36:31;;;;;;;5.15;4.35;;;;;;;;;;4985867;28;20076;-86
2022/06/02 10:38:59;;;;;;;6.03;4.30;;;;;;;16.74;57.34;68629.03;4969154;28;20054;-86
2022/06/02 10:41:49;;;;;;;5.03;4.23;;;;;;;16.88;59.42;68642.34;4971902;28;20042;-86
2022/06/02 10:44:14;;;;;;;4.50;3.72;;;;;;;17.29;56.49;68690.66;4985984;28;20049;-86
2022/06/02 10:47:04;;;;;;;5.63;4.00;;;;;;;17.35;57.57;68697.50;4988501;28;20050;-86
2022/06/02 10:49:36;;;;;;;5.80;4.85;;;;;;;17.76;58.31;68739.88;4988996;28;20054;-86
2022/06/02 10:52:39;;;;;;;5.40;3.97;;;;;;;17.88;54.43;68761.09;4977643;28;20559;-86
2022/06/02 10:55:07;;;;;;;5.07;4.47;;;;;;;;;;4974571;28;20556;-86
2022/06/02 10:57:56;;;;;;;4.82;3.90;;;;;;;17.90;56.81;68758.56;4988301;28;20062;-86
2022/06/02 11:00:40;;;;;;;6.00;4.95;;;;;;;;;;4964962;28;20150;-85
2022/06/02 11:03:14;;;;;;;7.50;4.88;;;;;;;17.75;56.58;68742.00;4940245;28;20039;-86
2022/06/02 11:06:03;;;;;;;6.88;5.20;;;;;;;17.64;55.48;68728.88;4985846;28;20038;-86
2022/06/02 11:08:44;;;;;;;6.60;4.35;;;;;;;17.79;57.12;68746.59;4956472;28;20498;-86
2022/06/02 11:11:30;;;;;;;5.53;4.60;;;;;;;17.65;54.45;68730.03;4953818;28;20545;-86
2022/06/02 11:14:01;;;;;;;5.13;4.57;;;;;;;17.60;56.63;68722.19;4988255;28;20070;-86
2022/06/02 11:16:35;;;;;;;5.13;4.55;;;;;;;;;;4988126;28;20413;-85
2022/06/02 11:19:40;;;;;;;6.68;4.95;;;;;;;17.63;54.10;68725.03;4987422;28;20133;-83
2022/06/02 11:22:23;;;;;;;5.95;4.07;;;;;;;17.59;55.53;68721.06;4987983;28;20050;-85
2022/06/02 11:24:52;;;;;;;5.78;4.35;;;;;;;17.94;56.45;68762.56;4971075;28;20556;-87
2022/06/02 11:27:29;;;;;;;7.47;4.50;;;;;;;18.22;54.43;68794.53;4985553;28;20042;-86
2022/06/02 11:30:17;;;;;;;5.05;4.40;;;;;;;18.55;56.05;68830.50;4987846;28;20042;-86
2022/06/02 11:33:13;;;;;;;4.50;3.78;;;;;;;18.69;56.22;68843.78;4970796;28;20053;-85
2022/06/02 11:35:57;;;;;;;4.93;3.75;;;;;;;18.95;52.41;68872.94;4988065;28;20447;-85
2022/06/02 11:38:31;;;;;;;6.18;4.10;;;;;;;;;;4970611;28;20612;-85
2022/06/02 11:41:06;;;;;;;4.47;3.88;;;;;;;18.76;50.85;68851.22;4987488;28;20078;-85
2022/06/02 11:43:58;;;;;;;4.70;3.72;;;;;;;18.89;53.27;68866.06;4988480;28;20061;-84
2022/06/02 11:46:48;;;;;;;5.13;3.38;;;;;;;18.72;48.36;68847.78;4954619;28;20113;-84
2022/06/02 11:49:37;;;;;;;4.93;3.63;;;;;;;18.51;49.54;68825.94;4965095;28;20181;-83
2022/06/02 11:52:40;;;;;;;4.25;3.85;;;;;;;18.41;48.15;68812.38;4968801;28;20066;-83
2022/06/02 11:55:23;;;;;;;4.78;3.50;;;;;;;17.98;49.48;68761.75;4952324;28;20057;-83
2022/06/02 11:57:49;;;;;;;4.35;3.80;;;;;;;17.87;50.14;68754.59;4978513;28;20043;-84
2022/06/02 12:00:52;;;;;;;4.00;3.05;;;;;;;18.22;52.35;68793.97;4988306;28;20080;-83
2022/06/02 12:03:57;;;;;;;4.88;3.70;;;;;;;18.52;50.52;68824.38;4945167;28;20045;-84
2022/06/02 12:06:52;;;;;;;5.28;4.00;;;;;;;18.80;51.05;68859.06;4958924;28;20101;-84
2022/06/02 12:09:38;;;;;;;7.78;4.00;;;;;;;18.61;50.29;68835.22;4955009;28;20031;-84
2022/06/02 12:12:07;;;;;;;4.57;3.75;;;;;;;18.55;50.43;68827.78;4971392;28;20070;-85
2022/06/02 12:14:44;;;;;;;6.13;3.67;;;;;;;18.57;48.91;68830.66;4992505;28;20042;-86
2022/06/02 12:17:32;;;;;;;3.85;3.35;;;;;;;18.93;53.19;68873.34;4957558;28;20056;-86
2022/06/02 12:20:29;;;;;;;4.40;3.47;;;;;;;19.26;47.73;68910.47;4990536;28;20061;-86
2022/06/02 12:22:57;;;;;;;6.35;3.97;;;;;;;19.53;47.05;68938.03;4990133;28;20053;-88
2022/06/02 12:25:56;;;;;;;4.85;3.35;;;;;;;19.67;48.98;68953.50;4992157;28;20116;-85
2022/06/02 12:28:21;;;;;;;4.78;4.00;;;;;;;19.43;45.56;68926.63;4975816;28;20097;-85
2022/06/02 12:30:49;;;;;;;6.00;3.90;;;;;;;19.04;48.03;68883.19;4990806;28;20042;-86
2022/06/02 12:33:50;;;;;;;6.55;3.83;;;;;;;18.71;51.04;68848.78;4991699;28;20038;-86
2022/06/02 12:36:40;;;;;;;6.88;4.20;;;;;;;18.28;47.70;68800.81;4974542;28;20050;-85
2022/06/02 12:39:20;;;;;;;6.13;3.75;;;;;;;18.30;51.00;68803.09;4961122;28;20081;-85
2022/06/02 12:41:48;;;;;;;4.78;3.63;;;;;;;18.56;49.16;68831.63;5001178;28;20490;-85
2022/06/02 12:45:06;;;;;;;5.50;4.20;;;;;;;18.62;47.90;68833.09;4990482;28;20057;-84
2022/06/02 12:48:07;;;;;;;5.20;3.33;;;;;;;19.06;51.19;68887.63;4921435;28;20096;-86
2022/06/02 12:50:43;;;;;;;4.38;3.42;;;;;;;;;;4953821;28;20093;-86
2022/06/02 12:53:30;;;;;;;4.30;3.78;;;;;;;19.27;47.15;68908.34;4973751;28;20105;-85
2022/06/02 12:56:14;;;;;;;5.50;3.20;;;;;;;19.32;46.49;68911.91;4974693;28;20046;-87
2022/06/02 12:59:23;;;;;;;7.28;3.53;;;;;;;19.51;49.42;68935.19;4991422;28;20050;-84
2022/06/02 13:01:48;;;;;;;3.50;2.78;;;;;;;19.68;48.37;68962.16;4980915;28;20497;-85
2022/06/02 13:04:35;;;;;;;3.90;3.20;;;;;;;19.63;46.31;68951.03;5001976;28;20045;-87